Time;durP1;ratioP1;P1;durP2;ratioP2;P2;SDS_P1;SDS_P2;PMS_P1;PMS_P2;Temp;Humidity;BMP_temperature;BMP_pressure;BME280_temperature;BME280_humidity;BME280_pressure;Samples;Min_cycle;Max_cycle;Signal;HPM_P1;HPM_P2
2022/09/03 00:00:24;;;;;;;58.80;3.20;;;;;;;;;;5073734;28;21038;-65
2022/09/03 00:02:59;;;;;;;59.57;3.23;;;;;;;;;;5073932;28;20569;-65
2022/09/03 00:05:30;;;;;;;58.93;3.77;;;;;;;;;;5073937;28;20449;-65
2022/09/03 00:08:02;;;;;;;58.93;3.10;;;;;;;;;;5073599;28;20512;-65
2022/09/03 00:10:32;;;;;;;59.03;3.33;;;;;;;;;;5073823;28;20503;-65
2022/09/03 00:13:01;;;;;;;58.40;3.00;;;;;;;;;;5074019;28;20466;-65
2022/09/03 00:15:29;;;;;;;59.07;3.40;;;;;;;;;;5073711;28;20510;-65
2022/09/03 00:17:59;;;;;;;58.67;2.90;;;;;;;;;;5073597;28;20820;-65
2022/09/03 00:20:29;;;;;;;58.37;2.77;;;;;;;;;;5073143;28;20485;-65
2022/09/03 00:22:58;;;;;;;59.00;2.90;;;;;;;;;;5071648;28;20470;-65
2022/09/03 00:25:27;;;;;;;58.47;3.10;;;;;;;;;;5073662;28;20543;-65
2022/09/03 00:27:56;;;;;;;58.23;3.10;;;;;;;;;;5073598;28;20535;-65
2022/09/03 00:30:26;;;;;;;58.77;2.90;;;;;;;;;;5072491;28;20531;-65
2022/09/03 00:32:55;;;;;;;58.17;2.83;;;;;;;;;;5053367;28;20529;-65
2022/09/03 00:35:27;;;;;;;59.10;3.23;;;;;;;;;;5053319;28;20546;-65
2022/09/03 00:37:55;;;;;;;58.37;2.60;;;;;;;;;;5053607;28;20461;-65
2022/09/03 00:40:32;;;;;;;58.40;2.80;;;;;;;;;;5052988;28;20486;-65
2022/09/03 00:43:04;;;;;;;58.20;2.80;;;;;;;;;;5053217;28;20830;-65
2022/09/03 00:45:34;;;;;;;59.50;2.87;;;;;;;;;;5052942;28;20542;-65
2022/09/03 00:48:07;;;;;;;58.77;2.60;;;;;;;;;;5053142;28;20451;-65
2022/09/03 00:50:42;;;;;;;60.07;3.30;;;;;;;;;;5052872;28;20447;-65
2022/09/03 00:53:12;;;;;;;58.80;3.50;;;;;;;;;;5053047;28;20525;-65
2022/09/03 00:55:46;;;;;;;58.40;2.70;;;;;;;;;;5067361;28;20465;-65
2022/09/03 00:58:30;;;;;;;58.33;2.77;;;;;;;;;;5072169;28;20822;-65
2022/09/03 01:00:57;;;;;;;58.00;2.70;;;;;;;;;;5072981;28;20444;-65
2022/09/03 01:03:31;;;;;;;58.47;3.10;;;;;;;;;;5059054;28;20474;-65
2022/09/03 01:06:08;;;;;;;58.40;2.60;;;;;;;;;;5052796;28;20789;-65
2022/09/03 01:08:44;;;;;;;58.27;2.80;;;;;;;;;;5052433;28;20966;-65
2022/09/03 01:11:18;;;;;;;58.57;2.93;;;;;;;;;;5052801;28;20455;-65
2022/09/03 01:13:50;;;;;;;58.60;3.07;;;;;;;;;;5052608;28;20475;-65
2022/09/03 01:16:24;;;;;;;58.27;2.60;;;;;;;;;;5052544;28;20508;-65
2022/09/03 01:18:56;;;;;;;58.50;2.90;;;;;;;;;;5051849;28;20498;-65
2022/09/03 01:21:33;;;;;;;58.20;2.80;;;;;;;;;;5052575;28;20825;-65
2022/09/03 01:24:08;;;;;;;58.10;2.60;;;;;;;;;;5052442;28;20471;-65
2022/09/03 01:26:45;;;;;;;58.00;2.80;;;;;;;;;;5053677;28;20461;-65
2022/09/03 01:29:19;;;;;;;58.33;2.90;;;;;;;;;;5071916;28;20450;-65
2022/09/03 01:31:51;;;;;;;58.37;2.83;;;;;;;;;;5072622;28;20505;-65
2022/09/03 01:34:22;;;;;;;58.37;3.00;;;;;;;;;;5072226;28;20499;-65
2022/09/03 01:36:54;;;;;;;58.60;3.27;;;;;;;;;;5072112;28;20458;-65
2022/09/03 01:39:27;;;;;;;58.37;2.83;;;;;;;;;;5071663;28;20488;-65
2022/09/03 01:42:16;;;;;;;58.07;2.50;;;;;;;;;;5071935;28;20454;-65
2022/09/03 01:44:52;;;;;;;58.40;2.97;;;;;;;;;;5069604;28;20816;-65
2022/09/03 01:47:23;;;;;;;58.10;2.57;;;;;;;;;;5071778;28;20962;-65
2022/09/03 01:49:56;;;;;;;58.17;2.70;;;;;;;;;;5071731;28;20953;-65
2022/09/03 01:52:26;;;;;;;58.30;3.03;;;;;;;;;;5071866;28;20951;-65
2022/09/03 01:55:01;;;;;;;59.33;3.30;;;;;;;;;;5072065;28;20447;-65
2022/09/03 01:57:46;;;;;;;60.30;3.37;;;;;;;;;;5071963;28;20442;-65
2022/09/03 02:00:18;;;;;;;58.97;2.97;;;;;;;;;;5068548;28;20496;-65
2022/09/03 02:02:46;;;;;;;58.17;2.77;;;;;;;;;;5072032;28;20900;-65
2022/09/03 02:05:15;;;;;;;58.07;2.67;;;;;;;;;;5072127;28;20455;-65
2022/09/03 02:07:43;;;;;;;58.07;2.27;;;;;;;;;;5071713;28;20447;-65
2022/09/03 02:10:12;;;;;;;58.33;2.77;;;;;;;;;;5070929;28;20440;-65
2022/09/03 02:12:42;;;;;;;59.00;2.80;;;;;;;;;;5071825;28;20991;-65
2022/09/03 02:15:12;;;;;;;58.40;2.87;;;;;;;;;;5071769;28;20473;-65
2022/09/03 02:17:41;;;;;;;58.03;2.90;;;;;;;;;;5071946;28;20454;-65
2022/09/03 02:20:10;;;;;;;58.27;2.80;;;;;;;;;;5071174;28;20489;-65
2022/09/03 02:22:38;;;;;;;58.07;2.87;;;;;;;;;;5071432;28;20466;-65
2022/09/03 02:25:05;;;;;;;58.13;2.70;;;;;;;;;;5071388;28;20456;-65
2022/09/03 02:27:32;;;;;;;58.10;2.80;;;;;;;;;;5071801;28;21101;-65
2022/09/03 02:30:00;;;;;;;58.20;2.50;;;;;;;;;;5071122;28;20445;-65
2022/09/03 02:32:27;;;;;;;58.07;2.60;;;;;;;;;;5069200;28;20467;-65
2022/09/03 02:34:55;;;;;;;58.90;2.90;;;;;;;;;;5071623;28;20460;-65
2022/09/03 02:37:23;;;;;;;60.10;3.23;;;;;;;;;;5071203;28;20465;-65
2022/09/03 02:39:50;;;;;;;58.03;2.80;;;;;;;;;;5071224;28;20848;-65
2022/09/03 02:42:17;;;;;;;57.93;2.47;;;;;;;;;;5071581;28;20507;-65
2022/09/03 02:44:47;;;;;;;58.20;2.60;;;;;;;;;;5071452;28;20453;-65
2022/09/03 02:47:14;;;;;;;58.13;2.73;;;;;;;;;;5071370;28;20458;-65
2022/09/03 02:49:42;;;;;;;58.27;2.73;;;;;;;;;;5070876;28;20447;-65
2022/09/03 02:52:11;;;;;;;58.20;2.80;;;;;;;;;;5071217;28;20454;-65
2022/09/03 02:54:39;;;;;;;58.00;2.60;;;;;;;;;;5071491;28;20866;-65
2022/09/03 02:57:07;;;;;;;58.43;2.93;;;;;;;;;;5071509;28;20451;-65
2022/09/03 02:59:34;;;;;;;58.17;2.70;;;;;;;;;;5070870;28;20483;-65
2022/09/03 03:02:01;;;;;;;60.20;2.70;;;;;;;;;;5071694;28;20529;-65
2022/09/03 03:04:29;;;;;;;58.13;2.83;;;;;;;;;;5069140;28;20450;-65
2022/09/03 03:06:56;;;;;;;58.10;2.70;;;;;;;;;;5071343;28;20456;-65
2022/09/03 03:09:25;;;;;;;58.50;3.00;;;;;;;;;;5070976;28;20530;-65
2022/09/03 03:11:54;;;;;;;58.17;2.80;;;;;;;;;;5071196;28;20446;-65
2022/09/03 03:14:21;;;;;;;58.10;2.90;;;;;;;;;;5070935;28;21012;-65
2022/09/03 03:16:48;;;;;;;58.17;3.10;;;;;;;;;;5070926;28;20876;-65
2022/09/03 03:19:16;;;;;;;57.80;2.70;;;;;;;;;;5070917;28;20823;-65
2022/09/03 03:21:43;;;;;;;58.40;2.63;;;;;;;;;;5072322;28;20450;-65
2022/09/03 03:24:10;;;;;;;58.10;2.90;;;;;;;;;;5074720;28;20486;-65
2022/09/03 03:26:39;;;;;;;58.80;3.10;;;;;;;;;;5074659;28;20476;-65
2022/09/03 03:29:06;;;;;;;58.60;2.90;;;;;;;;;;5074176;28;20450;-65
2022/09/03 03:31:33;;;;;;;58.37;2.80;;;;;;;;;;5074819;28;20838;-65
2022/09/03 03:34:01;;;;;;;58.50;2.93;;;;;;;;;;5074437;28;20466;-65
2022/09/03 03:36:29;;;;;;;58.07;2.67;;;;;;;;;;5072067;28;20473;-65
2022/09/03 03:38:57;;;;;;;58.07;2.60;;;;;;;;;;5074185;28;20536;-65
2022/09/03 03:41:25;;;;;;;58.30;2.50;;;;;;;;;;5074303;28;20845;-65
2022/09/03 03:43:54;;;;;;;58.40;2.70;;;;;;;;;;5074095;28;20463;-65
2022/09/03 03:46:22;;;;;;;58.07;2.53;;;;;;;;;;5074401;28;20447;-65
2022/09/03 03:48:49;;;;;;;58.27;2.80;;;;;;;;;;5074096;28;20453;-65
2022/09/03 03:51:16;;;;;;;65.03;2.93;;;;;;;;;;5074358;28;20454;-65
2022/09/03 03:53:44;;;;;;;58.00;2.63;;;;;;;;;;5074129;28;20472;-65
2022/09/03 03:56:12;;;;;;;58.07;2.67;;;;;;;;;;5074118;28;20529;-65
2022/09/03 03:58:41;;;;;;;57.83;2.60;;;;;;;;;;5073480;28;21102;-65
2022/09/03 04:01:10;;;;;;;58.27;2.80;;;;;;;;;;5074389;28;20489;-65
2022/09/03 04:03:38;;;;;;;58.50;2.90;;;;;;;;;;5073944;28;20471;-65
2022/09/03 04:06:06;;;;;;;58.67;2.53;;;;;;;;;;5073708;28;20968;-65
2022/09/03 04:08:35;;;;;;;57.90;2.50;;;;;;;;;;5071434;28;20458;-65
2022/09/03 04:11:02;;;;;;;58.17;2.77;;;;;;;;;;5073661;28;20453;-65
2022/09/03 04:13:30;;;;;;;58.27;2.67;;;;;;;;;;5073877;28;20470;-65
2022/09/03 04:16:01;;;;;;;57.87;2.67;;;;;;;;;;5073664;28;20465;-65
2022/09/03 04:18:30;;;;;;;58.57;2.60;;;;;;;;;;5073767;28;20834;-65
2022/09/03 04:21:03;;;;;;;58.57;2.60;;;;;;;;;;5073691;28;20479;-65
2022/09/03 04:23:30;;;;;;;58.20;2.80;;;;;;;;;;5073391;28;20477;-65
2022/09/03 04:25:57;;;;;;;57.90;2.57;;;;;;;;;;5073734;28;20468;-65
2022/09/03 04:28:24;;;;;;;58.70;2.90;;;;;;;;;;5073483;28;20450;-65
2022/09/03 04:30:51;;;;;;;58.13;2.90;;;;;;;;;;5073346;28;20530;-65
2022/09/03 04:33:18;;;;;;;59.27;3.07;;;;;;;;;;5072747;28;20477;-65
2022/09/03 04:35:47;;;;;;;58.30;2.50;;;;;;;;;;5073273;28;20464;-65
2022/09/03 04:38:14;;;;;;;58.00;2.60;;;;;;;;;;5072849;28;20955;-65
2022/09/03 04:40:41;;;;;;;58.30;2.67;;;;;;;;;;5069965;28;20489;-65
2022/09/03 04:43:08;;;;;;;58.60;2.80;;;;;;;;;;5073247;28;20879;-65
2022/09/03 04:45:35;;;;;;;58.50;3.10;;;;;;;;;;5073181;28;20452;-65
2022/09/03 04:48:03;;;;;;;59.80;3.03;;;;;;;;;;5073140;28;20455;-65
2022/09/03 04:50:31;;;;;;;63.70;3.53;;;;;;;;;;5072894;28;20446;-65
2022/09/03 04:53:02;;;;;;;58.50;3.03;;;;;;;;;;5072815;28;20470;-65
2022/09/03 04:55:30;;;;;;;58.10;2.67;;;;;;;;;;5073262;28;20450;-65
2022/09/03 04:57:57;;;;;;;58.20;2.47;;;;;;;;;;5072997;28;20451;-65
2022/09/03 05:00:24;;;;;;;58.20;2.90;;;;;;;;;;5072534;28;20481;-65
2022/09/03 05:02:51;;;;;;;58.53;3.10;;;;;;;;;;5072751;28;20470;-65
2022/09/03 05:05:19;;;;;;;58.10;2.43;;;;;;;;;;5073089;28;20453;-65
2022/09/03 05:07:46;;;;;;;59.00;3.00;;;;;;;;;;5072854;28;20449;-65
2022/09/03 05:10:19;;;;;;;58.17;2.70;;;;;;;;;;5072403;28;20481;-65
2022/09/03 05:12:46;;;;;;;58.40;2.97;;;;;;;;;;5072676;28;20474;-65
2022/09/03 05:15:13;;;;;;;58.67;2.67;;;;;;;;;;5072826;28;20456;-65
2022/09/03 05:17:40;;;;;;;58.77;2.90;;;;;;;;;;5070242;28;20450;-65
2022/09/03 05:20:08;;;;;;;59.77;2.80;;;;;;;;;;5072023;28;20483;-65
2022/09/03 05:22:36;;;;;;;58.20;2.70;;;;;;;;;;5072462;28;20471;-65
2022/09/03 05:25:03;;;;;;;58.13;2.73;;;;;;;;;;5072491;28;20472;-65
2022/09/03 05:27:32;;;;;;;58.10;2.43;;;;;;;;;;5072271;28;20451;-65
2022/09/03 05:30:00;;;;;;;58.10;2.70;;;;;;;;;;5072155;28;20449;-65
2022/09/03 05:32:27;;;;;;;58.00;2.73;;;;;;;;;;5072155;28;20535;-65
2022/09/03 05:34:55;;;;;;;59.63;3.00;;;;;;;;;;5072551;28;20450;-65
2022/09/03 05:37:23;;;;;;;58.43;3.00;;;;;;;;;;5072026;28;20840;-65
2022/09/03 05:39:50;;;;;;;58.10;2.70;;;;;;;;;;5071660;28;20458;-65
2022/09/03 05:42:17;;;;;;;58.40;2.70;;;;;;;;;;5072480;28;20800;-65
2022/09/03 05:44:48;;;;;;;58.00;3.00;;;;;;;;;;5071693;28;20955;-65
2022/09/03 05:47:15;;;;;;;58.80;3.23;;;;;;;;;;5072443;28;20456;-65
2022/09/03 05:49:42;;;;;;;58.40;2.70;;;;;;;;;;5069591;28;20821;-65
2022/09/03 05:52:10;;;;;;;58.53;2.93;;;;;;;;;;5071969;28;20868;-65
2022/09/03 05:54:37;;;;;;;58.03;2.80;;;;;;;;;;5072081;28;20444;-65
2022/09/03 05:57:04;;;;;;;60.10;3.40;;;;;;;;;;5071995;28;20455;-65
2022/09/03 05:59:31;;;;;;;58.30;3.10;;;;;;;;;;5071419;28;20454;-65
2022/09/03 06:02:00;;;;;;;57.97;2.70;;;;;;;;;;5071826;28;20499;-65
2022/09/03 06:04:27;;;;;;;58.90;2.80;;;;;;;;;;5071933;28;20443;-65
2022/09/03 06:06:55;;;;;;;59.07;3.77;;;;;;;;;;5071791;28;20759;-65
2022/09/03 06:09:22;;;;;;;58.47;3.10;;;;;;;;;;5071537;28;20447;-65
2022/09/03 06:11:49;;;;;;;58.57;3.00;;;;;;;;;;5071506;28;20446;-65
2022/09/03 06:14:17;;;;;;;58.07;2.90;;;;;;;;;;5071834;28;20636;-65
2022/09/03 06:16:44;;;;;;;58.20;2.70;;;;;;;;;;5071730;28;20444;-65
2022/09/03 06:19:13;;;;;;;58.07;2.80;;;;;;;;;;5071507;28;20803;-65
2022/09/03 06:21:41;;;;;;;58.60;2.67;;;;;;;;;;5069435;28;20519;-65
2022/09/03 06:24:09;;;;;;;58.77;3.13;;;;;;;;;;5071430;28;20995;-65
2022/09/03 06:26:36;;;;;;;58.53;2.83;;;;;;;;;;5071346;28;20443;-65
2022/09/03 06:29:03;;;;;;;58.13;2.90;;;;;;;;;;5071160;28;20939;-65
2022/09/03 06:31:31;;;;;;;57.87;2.70;;;;;;;;;;5071545;28;20443;-65
2022/09/03 06:33:58;;;;;;;57.87;2.77;;;;;;;;;;5071475;28;20470;-65
2022/09/03 06:36:27;;;;;;;60.57;2.90;;;;;;;;;;5071468;28;20850;-65
2022/09/03 06:38:55;;;;;;;58.23;3.13;;;;;;;;;;5071038;28;20455;-65
2022/09/03 06:41:23;;;;;;;57.77;2.47;;;;;;;;;;5071471;28;20479;-65
2022/09/03 06:43:51;;;;;;;58.27;3.13;;;;;;;;;;5071433;28;20467;-65
2022/09/03 06:46:20;;;;;;;58.07;3.07;;;;;;;;;;5071437;28;20501;-65
2022/09/03 06:48:47;;;;;;;57.87;2.70;;;;;;;;;;5071071;28;20505;-65
2022/09/03 06:51:15;;;;;;;58.50;2.77;;;;;;;;;;5071416;28;20474;-65
2022/09/03 06:53:44;;;;;;;60.60;3.30;;;;;;;;;;5068696;28;20471;-65
2022/09/03 06:56:12;;;;;;;58.27;2.87;;;;;;;;;;5071908;28;20497;-65
2022/09/03 06:58:41;;;;;;;58.03;2.70;;;;;;;;;;5074908;28;20454;-65
2022/09/03 07:01:09;;;;;;;58.03;2.77;;;;;;;;;;5075081;28;20823;-65
2022/09/03 07:03:37;;;;;;;58.07;2.90;;;;;;;;;;5074934;28;20467;-65
2022/09/03 07:06:05;;;;;;;58.87;3.13;;;;;;;;;;5074921;28;20447;-65
2022/09/03 07:08:33;;;;;;;58.83;3.13;;;;;;;;;;5074885;28;20826;-65
2022/09/03 07:11:04;;;;;;;58.83;2.90;;;;;;;;;;5074992;28;20820;-65
2022/09/03 07:13:32;;;;;;;58.90;3.00;;;;;;;;;;5074926;28;20979;-65
2022/09/03 07:16:00;;;;;;;59.20;2.70;;;;;;;;;;5074852;28;20447;-65
2022/09/03 07:18:27;;;;;;;57.97;2.80;;;;;;;;;;5074559;28;20455;-65
2022/09/03 07:20:58;;;;;;;59.00;3.00;;;;;;;;;;5074463;28;20506;-65
2022/09/03 07:23:25;;;;;;;58.17;2.73;;;;;;;;;;5074115;28;20481;-65
2022/09/03 07:25:55;;;;;;;58.50;2.90;;;;;;;;;;5073332;28;20525;-65
2022/09/03 07:28:25;;;;;;;58.03;3.23;;;;;;;;;;5074838;28;20616;-65
2022/09/03 07:30:52;;;;;;;58.37;2.47;;;;;;;;;;5074327;28;20439;-65
2022/09/03 07:33:19;;;;;;;58.70;3.37;;;;;;;;;;5074526;28;20805;-65
2022/09/03 07:35:47;;;;;;;59.00;3.30;;;;;;;;;;5074502;28;20459;-65
2022/09/03 07:38:17;;;;;;;58.07;2.70;;;;;;;;;;5074203;28;20443;-65
2022/09/03 07:40:45;;;;;;;57.77;2.80;;;;;;;;;;5074226;28;20528;-65
2022/09/03 07:43:12;;;;;;;58.90;2.80;;;;;;;;;;5074396;28;20577;-65
2022/09/03 07:45:45;;;;;;;59.47;3.27;;;;;;;;;;5074116;28;20443;-65
2022/09/03 07:48:12;;;;;;;58.77;2.97;;;;;;;;;;5074419;28;20493;-65
2022/09/03 07:50:39;;;;;;;58.50;3.50;;;;;;;;;;5073912;28;20454;-65
2022/09/03 07:53:07;;;;;;;58.60;3.70;;;;;;;;;;5074324;28;20550;-65
2022/09/03 07:55:34;;;;;;;58.37;2.60;;;;;;;;;;5071841;28;20495;-65
2022/09/03 07:58:01;;;;;;;58.60;3.20;;;;;;;;;;5074530;28;20447;-65
2022/09/03 08:00:28;;;;;;;58.50;3.00;;;;;;;;;;5073504;28;20981;-65
2022/09/03 08:03:00;;;;;;;58.57;2.53;;;;;;;;;;5074098;28;20467;-66
2022/09/03 08:05:27;;;;;;;58.77;3.10;;;;;;;;;;5074122;28;20473;-65
2022/09/03 08:07:54;;;;;;;58.40;2.93;;;;;;;;;;5073728;28;20450;-65
2022/09/03 08:10:21;;;;;;;59.10;3.10;;;;;;;;;;5073524;28;20538;-65
2022/09/03 08:12:49;;;;;;;58.97;3.50;;;;;;;;;;5073708;28;20459;-65
2022/09/03 08:15:16;;;;;;;58.30;2.70;;;;;;;;;;5073247;28;20551;-65
2022/09/03 08:17:44;;;;;;;60.00;3.37;;;;;;;;;;5072222;28;20530;-65
2022/09/03 08:20:12;;;;;;;58.90;3.43;;;;;;;;;;5072404;28;20826;-65
2022/09/03 08:22:40;;;;;;;58.97;3.27;;;;;;;;;;5072259;28;20490;-65
2022/09/03 08:25:07;;;;;;;58.07;2.97;;;;;;;;;;5072299;28;20447;-66
2022/09/03 08:27:35;;;;;;;58.17;3.10;;;;;;;;;;5070119;28;20447;-66
2022/09/03 08:30:03;;;;;;;58.17;2.90;;;;;;;;;;5072407;28;20443;-65
2022/09/03 08:32:30;;;;;;;58.80;3.30;;;;;;;;;;5073501;28;20463;-65
2022/09/03 08:34:57;;;;;;;58.53;3.60;;;;;;;;;;5073421;28;20448;-65
2022/09/03 08:37:27;;;;;;;58.47;3.17;;;;;;;;;;5073389;28;20449;-65
2022/09/03 08:39:55;;;;;;;59.00;3.20;;;;;;;;;;5072839;28;20483;-65
2022/09/03 08:42:25;;;;;;;58.03;2.93;;;;;;;;;;5073359;28;20487;-66
2022/09/03 08:44:54;;;;;;;58.27;3.57;;;;;;;;;;5073441;28;20454;-66
2022/09/03 08:47:23;;;;;;;57.97;2.70;;;;;;;;;;5073095;28;20447;-66
2022/09/03 08:49:53;;;;;;;57.87;2.63;;;;;;;;;;5073189;28;20444;-66
2022/09/03 08:52:25;;;;;;;58.30;2.90;;;;;;;;;;5072775;28;21033;-66
2022/09/03 08:54:57;;;;;;;58.90;3.20;;;;;;;;;;5073021;28;20966;-65
2022/09/03 08:57:25;;;;;;;58.40;2.93;;;;;;;;;;5073266;28;20447;-66
2022/09/03 08:59:55;;;;;;;59.33;2.80;;;;;;;;;;5070098;28;20473;-66
2022/09/03 09:02:26;;;;;;;59.30;2.93;;;;;;;;;;5072728;28;20494;-66
2022/09/03 09:04:56;;;;;;;57.80;2.87;;;;;;;;;;5072634;28;20971;-66
2022/09/03 09:07:30;;;;;;;59.17;2.87;;;;;;;;;;5072827;28;20443;-66
2022/09/03 09:10:02;;;;;;;58.30;3.00;;;;;;;;;;5072289;28;20451;-66
2022/09/03 09:12:33;;;;;;;58.07;2.97;;;;;;;;;;5072770;28;20831;-66
2022/09/03 09:15:06;;;;;;;59.00;3.20;;;;;;;;;;5072600;28;20452;-66
2022/09/03 09:17:44;;;;;;;58.57;3.13;;;;;;;;;;5072817;28;20819;-66
2022/09/03 09:20:16;;;;;;;58.37;2.87;;;;;;;;;;5071784;28;20451;-66
2022/09/03 09:22:45;;;;;;;58.57;3.10;;;;;;;;;;5072246;28;21003;-66
2022/09/03 09:25:17;;;;;;;59.80;3.10;;;;;;;;;;5072597;28;20533;-66
2022/09/03 09:27:50;;;;;;;57.50;2.50;;;;;;;;;;5072249;28;20789;-66
2022/09/03 09:30:18;;;;;;;58.20;2.80;;;;;;;;;;5070395;28;20458;-66
2022/09/03 09:32:46;;;;;;;58.90;3.20;;;;;;;;;;5072606;28;20469;-66
2022/09/03 09:35:13;;;;;;;58.80;3.23;;;;;;;;;;5072146;28;20455;-66
2022/09/03 09:37:47;;;;;;;58.07;2.73;;;;;;;;;;5072228;28;20820;-66
2022/09/03 09:40:25;;;;;;;58.93;3.17;;;;;;;;;;5071404;28;20455;-66
2022/09/03 09:42:57;;;;;;;58.80;3.03;;;;;;;;;;5072135;28;20487;-66
2022/09/03 09:45:24;;;;;;;59.30;3.17;;;;;;;;;;5072160;28;20451;-66
2022/09/03 09:47:56;;;;;;;58.10;2.63;;;;;;;;;;5072087;28;20443;-66
2022/09/03 09:50:23;;;;;;;58.50;3.43;;;;;;;;;;5071711;28;20451;-66
2022/09/03 09:53:01;;;;;;;61.53;2.80;;;;;;;;;;5072272;28;20827;-66
2022/09/03 09:55:30;;;;;;;58.50;3.20;;;;;;;;;;5072070;28;20459;-66
2022/09/03 09:58:07;;;;;;;59.17;3.07;;;;;;;;;;5071721;28;20978;-66
2022/09/03 10:00:36;;;;;;;58.67;3.07;;;;;;;;;;5070564;28;20486;-66
2022/09/03 10:03:07;;;;;;;59.23;3.00;;;;;;;;;;5070669;28;20889;-66
2022/09/03 10:05:36;;;;;;;58.20;2.80;;;;;;;;;;5071713;28;20947;-66
2022/09/03 10:08:05;;;;;;;58.77;3.10;;;;;;;;;;5071957;28;20451;-66
2022/09/03 10:10:36;;;;;;;60.83;3.20;;;;;;;;;;5071570;28;20443;-66
2022/09/03 10:13:08;;;;;;;57.77;2.90;;;;;;;;;;5071626;28;20525;-66
2022/09/03 10:15:38;;;;;;;57.67;2.90;;;;;;;;;;5071619;28;20809;-66
2022/09/03 10:18:09;;;;;;;58.10;2.83;;;;;;;;;;5071782;28;20449;-66
2022/09/03 10:20:40;;;;;;;57.60;2.67;;;;;;;;;;5071768;28;20443;-66
2022/09/03 10:23:14;;;;;;;58.10;2.57;;;;;;;;;;5071592;28;20532;-66
2022/09/03 10:25:50;;;;;;;57.37;2.73;;;;;;;;;;5071673;28;20443;-66
2022/09/03 10:28:18;;;;;;;57.90;2.97;;;;;;;;;;5071359;28;20792;-66
2022/09/03 10:31:03;;;;;;;57.90;2.70;;;;;;;;;;5071496;28;20455;-66
2022/09/03 10:33:34;;;;;;;58.10;2.80;;;;;;;;;;5072944;28;20474;-66
2022/09/03 10:36:06;;;;;;;59.20;3.50;;;;;;;;;;5075568;28;20997;-66
2022/09/03 10:38:35;;;;;;;58.37;3.03;;;;;;;;;;5075279;28;20451;-66
2022/09/03 10:41:09;;;;;;;58.40;2.87;;;;;;;;;;5075833;28;20904;-66
2022/09/03 10:43:46;;;;;;;60.20;3.30;;;;;;;;;;5075213;28;20483;-66
2022/09/03 10:46:16;;;;;;;58.77;2.90;;;;;;;;;;5075651;28;20457;-66
2022/09/03 10:48:49;;;;;;;58.53;2.90;;;;;;;;;;5075120;28;20447;-66
2022/09/03 10:51:19;;;;;;;57.80;2.80;;;;;;;;;;5075267;28;20454;-66
2022/09/03 10:53:59;;;;;;;57.70;2.93;;;;;;;;;;5075660;28;20466;-66
2022/09/03 10:56:32;;;;;;;58.97;2.97;;;;;;;;;;5075552;28;20461;-66
2022/09/03 10:59:16;;;;;;;57.87;3.00;;;;;;;;;;5074717;28;20463;-66
2022/09/03 11:01:49;;;;;;;57.87;2.63;;;;;;;;;;5075635;28;20443;-66
2022/09/03 11:04:27;;;;;;;57.70;2.37;;;;;;;;;;5072986;28;20471;-66
2022/09/03 11:06:55;;;;;;;57.67;2.67;;;;;;;;;;5075260;28;20497;-66
2022/09/03 11:09:24;;;;;;;58.03;2.30;;;;;;;;;;5074716;28;20447;-66
2022/09/03 11:11:55;;;;;;;59.50;3.17;;;;;;;;;;5074766;28;20533;-66
2022/09/03 11:14:29;;;;;;;58.17;2.67;;;;;;;;;;5075046;28;20558;-66
2022/09/03 11:17:02;;;;;;;58.10;2.93;;;;;;;;;;5074977;28;20453;-66
2022/09/03 11:19:34;;;;;;;57.80;2.80;;;;;;;;;;5074540;28;20454;-66
2022/09/03 11:22:01;;;;;;;57.60;2.60;;;;;;;;;;5074410;28;21058;-66
2022/09/03 11:24:31;;;;;;;57.60;2.63;;;;;;;;;;5074292;28;20452;-66
2022/09/03 11:27:03;;;;;;;58.20;2.93;;;;;;;;;;5074711;28;20458;-66
2022/09/03 11:29:37;;;;;;;58.17;2.70;;;;;;;;;;5074231;28;20450;-66
2022/09/03 11:32:09;;;;;;;65.50;2.67;;;;;;;;;;5074495;28;20450;-66
2022/09/03 11:34:46;;;;;;;60.30;2.97;;;;;;;;;;5072135;28;20800;-66
2022/09/03 11:37:20;;;;;;;58.90;2.90;;;;;;;;;;5054557;28;20940;-66
2022/09/03 11:39:55;;;;;;;58.27;2.97;;;;;;;;;;5054217;28;20444;-66
2022/09/03 11:42:28;;;;;;;58.90;3.10;;;;;;;;;;5053829;28;20487;-66
2022/09/03 11:45:00;;;;;;;58.17;2.90;;;;;;;;;;5054396;28;20448;-66
2022/09/03 11:47:38;;;;;;;57.70;3.13;;;;;;;;;;5054389;28;20535;-66
2022/09/03 11:50:07;;;;;;;58.43;3.20;;;;;;;;;;5053924;28;20502;-66
2022/09/03 11:52:39;;;;;;;58.80;3.30;;;;;;;;;;5054048;28;20460;-66
2022/09/03 11:55:06;;;;;;;58.90;3.47;;;;;;;;;;5054183;28;20502;-65
2022/09/03 11:57:42;;;;;;;58.50;3.10;;;;;;;;;;5053950;28;20955;-65
2022/09/03 12:00:11;;;;;;;58.33;2.90;;;;;;;;;;5053907;28;20455;-65
2022/09/03 12:02:44;;;;;;;59.03;3.00;;;;;;;;;;5053741;28;21088;-66
2022/09/03 12:05:18;;;;;;;58.40;3.00;;;;;;;;;;5054331;28;20448;-66
2022/09/03 12:07:50;;;;;;;57.97;2.90;;;;;;;;;;5066104;28;20455;-65
2022/09/03 12:10:26;;;;;;;58.17;3.33;;;;;;;;;;5073464;28;20830;-65
2022/09/03 12:13:01;;;;;;;58.90;3.27;;;;;;;;;;5074065;28;20474;-65
2022/09/03 12:15:47;;;;;;;58.57;3.23;;;;;;;;;;5074094;28;20534;-65
2022/09/03 12:18:21;;;;;;;59.13;3.63;;;;;;;;;;5073669;28;20533;-65
2022/09/03 12:20:51;;;;;;;58.60;3.53;;;;;;;;;;5073574;28;20444;-65
2022/09/03 12:23:27;;;;;;;65.47;3.60;;;;;;;;;;5073774;28;20483;-65
2022/09/03 12:25:54;;;;;;;58.60;3.53;;;;;;;;;;5073925;28;20443;-65
2022/09/03 12:28:24;;;;;;;59.63;3.30;;;;;;;;;;5073535;28;20443;-65
2022/09/03 12:30:52;;;;;;;59.47;3.47;;;;;;;;;;5073283;28;20448;-65
2022/09/03 12:33:19;;;;;;;58.37;3.03;;;;;;;;;;5073256;28;21451;-65
2022/09/03 12:35:56;;;;;;;60.43;3.10;;;;;;;;;;5073473;28;20461;-65
2022/09/03 12:38:24;;;;;;;63.43;3.87;;;;;;;;;;5071286;28;20867;-65
2022/09/03 12:40:51;;;;;;;59.03;3.60;;;;;;;;;;5073044;28;20447;-65
2022/09/03 12:43:19;;;;;;;59.23;3.50;;;;;;;;;;5073151;28;20518;-65
2022/09/03 12:45:49;;;;;;;58.20;3.33;;;;;;;;;;5073053;28;20456;-65
2022/09/03 12:48:17;;;;;;;59.30;3.50;;;;;;;;;;5073263;28;20542;-66
2022/09/03 12:50:45;;;;;;;58.27;2.80;;;;;;;;;;5072836;28;20443;-65
2022/09/03 12:53:14;;;;;;;58.27;2.70;;;;;;;;;;5072923;28;20463;-65
2022/09/03 12:55:44;;;;;;;58.10;2.60;;;;;;;;;;5071703;28;20453;-65
2022/09/03 12:58:13;;;;;;;57.77;2.77;;;;;;;;;;5072432;28;20447;-65
2022/09/03 13:00:42;;;;;;;58.27;2.77;;;;;;;;;;5072842;28;20443;-65
2022/09/03 13:03:13;;;;;;;58.50;2.60;;;;;;;;;;5072754;28;20498;-65
2022/09/03 13:05:43;;;;;;;58.70;2.80;;;;;;;;;;5073078;28;20451;-65
2022/09/03 13:08:11;;;;;;;60.60;3.10;;;;;;;;;;5072664;28;20917;-65
2022/09/03 13:10:40;;;;;;;58.60;3.17;;;;;;;;;;5072363;28;20443;-65
2022/09/03 13:13:18;;;;;;;58.27;2.53;;;;;;;;;;5072739;28;20478;-65
2022/09/03 13:15:56;;;;;;;58.37;2.80;;;;;;;;;;5070477;28;20462;-65
2022/09/03 13:18:28;;;;;;;59.10;3.50;;;;;;;;;;5072523;28;20443;-66
2022/09/03 13:21:05;;;;;;;58.87;3.17;;;;;;;;;;5072827;28;20454;-66
2022/09/03 13:23:37;;;;;;;59.00;3.57;;;;;;;;;;5072414;28;20486;-66
2022/09/03 13:26:09;;;;;;;58.73;3.40;;;;;;;;;;5072665;28;20530;-66
2022/09/03 13:28:43;;;;;;;58.70;2.97;;;;;;;;;;5072149;28;20542;-66
2022/09/03 13:31:21;;;;;;;58.77;2.90;;;;;;;;;;5072462;28;20447;-66
2022/09/03 13:33:52;;;;;;;59.83;3.23;;;;;;;;;;5072211;28;20466;-66
2022/09/03 13:36:22;;;;;;;58.87;3.07;;;;;;;;;;5072265;28;20474;-66
2022/09/03 13:38:52;;;;;;;58.77;2.77;;;;;;;;;;5071996;28;20447;-66
2022/09/03 13:41:21;;;;;;;61.00;3.33;;;;;;;;;;5072048;28;20450;-66
2022/09/03 13:43:53;;;;;;;58.90;3.00;;;;;;;;;;5071734;28;20609;-66
2022/09/03 13:46:24;;;;;;;67.87;3.70;;;;;;;;;;5069844;28;20451;-66
2022/09/03 13:51:48;;;;;;;58.50;2.90;;;;;;;;;;5072037;28;20431;-66
2022/09/03 13:54:19;;;;;;;58.90;3.50;;;;;;;;;;5071864;28;20470;-66
2022/09/03 13:56:51;;;;;;;58.60;3.20;;;;;;;;;;5072346;28;20458;-66
2022/09/03 13:59:20;;;;;;;58.17;2.63;;;;;;;;;;5071742;28;20455;-66
2022/09/03 14:01:59;;;;;;;58.50;2.80;;;;;;;;;;5071927;28;20446;-65
2022/09/03 14:04:30;;;;;;;58.10;2.63;;;;;;;;;;5071830;28;20850;-66
2022/09/03 14:07:00;;;;;;;57.97;2.70;;;;;;;;;;5071562;28;20435;-65
2022/09/03 14:09:32;;;;;;;58.97;2.40;;;;;;;;;;5071407;28;20970;-64
2022/09/03 14:12:05;;;;;;;58.10;2.60;;;;;;;;;;5071800;28;20447;-65
2022/09/03 14:14:38;;;;;;;57.53;2.07;;;;;;;;;;5071835;28;20833;-65
2022/09/03 14:17:11;;;;;;;57.80;2.00;;;;;;;;;;5071770;28;20459;-64
2022/09/03 14:19:41;;;;;;;58.00;2.00;;;;;;;;;;5071536;28;20458;-65
2022/09/03 14:22:10;;;;;;;58.27;2.43;;;;;;;;;;5070596;28;20486;-65
2022/09/03 14:24:44;;;;;;;59.47;2.00;;;;;;;;;;5066288;28;21028;-64
2022/09/03 14:27:11;;;;;;;57.87;2.33;;;;;;;;;;5071956;28;20796;-64
2022/09/03 14:29:39;;;;;;;58.00;2.33;;;;;;;;;;5071978;28;20821;-64
2022/09/03 14:32:11;;;;;;;59.37;2.77;;;;;;;;;;5071846;28;20447;-64
2022/09/03 14:34:44;;;;;;;58.20;2.30;;;;;;;;;;5072175;28;20811;-64
2022/09/03 14:37:22;;;;;;;59.90;2.70;;;;;;;;;;5071321;28;20451;-64
2022/09/03 14:39:53;;;;;;;58.40;2.90;;;;;;;;;;5071455;28;20947;-64
2022/09/03 14:42:41;;;;;;;58.17;2.40;;;;;;;;;;5071440;28;20475;-64
2022/09/03 14:45:26;;;;;;;59.23;2.70;;;;;;;;;;5066632;28;20463;-64
2022/09/03 14:48:11;;;;;;;58.47;2.70;;;;;;;;;;5071573;28;20447;-64
2022/09/03 14:50:45;;;;;;;58.00;2.50;;;;;;;;;;5071042;28;20569;-64